Flight Track Log - Related Links

Times and Time Zones

All times are in EDT time to prevent confusion due to time zone crossing. See the LXJ541 flight status page for this flight to view local times or setup timezone preferences in your user account.

Time Position Orientation Groundspeed Altitude Reporting Facility
EDT Latitude Longitude Course Direction KTS MPH feet Rate Location/Type
Thu 06:32:28 PM 38.1167 -78.4667 247° West 157 181 1,800  Level Potomac TRACON
Thu 06:33:48 PM 38.0867 -78.5572 247° West 207 238 6,100 3,343 Climbing Washington Center
Thu 06:34:48 PM 38.0597 -78.6325 246° West 245 282 9,600 3,400 Climbing Washington Center
Thu 06:35:48 PM 38.0303 -78.7236 248° West 261 300 12,900 2,900 Climbing Washington Center
Thu 06:36:48 PM 37.9964 -78.8222 246° West 290 334 15,400 2,750 Climbing Washington Center
Thu 06:37:48 PM 37.9575 -78.9472 249° West 335 386 18,400 2,750 Climbing Washington Center
Thu 06:38:48 PM 37.9186 -79.0611 247° West 353 406 20,900 2,400 Climbing Washington Center
Thu 06:39:48 PM 37.8717 -79.1747 242° Southwest 359 413 23,200 2,150 Climbing Washington Center
Thu 06:40:48 PM 37.8139 -79.2878 237° Southwest 366 421 25,200 1,950 Climbing Washington Center
Thu 06:41:48 PM 37.7628 -79.3931 238° Southwest 381 438 27,100 2,100 Climbing Washington Center
Thu 06:42:48 PM 37.6958 -79.5233 237° Southwest 395 455 29,400 1,950 Climbing Washington Center
Thu 06:43:48 PM 37.6403 -79.6306 237° Southwest 406 467 31,000 1,550 Climbing Washington Center
Thu 06:44:48 PM 37.5708 -79.7633 237° Southwest 414 476 32,500 1,000 Climbing Washington Center
Thu 06:45:48 PM 37.5056 -79.9011 239° Southwest 436 502 33,000 700 Climbing Washington Center
Thu 06:46:48 PM 37.4425 -80.0256 237° Southwest 456 525 33,900 1,314 Climbing Washington Center
Thu 06:48:05 PM 37.3456 -80.2094 236° Southwest 460 529 36,000 1,489 Climbing Atlanta Center
Thu 06:49:05 PM 37.2786 -80.3378 237° Southwest 455 524 37,300 1,000 Climbing Atlanta Center
Thu 06:50:05 PM 37.2156 -80.4606 237° Southwest 442 509 38,000 350 Climbing Atlanta Center
Thu 06:51:05 PM 37.1583 -80.5700 237° Southwest 431 496 38,000  Level Atlanta Center
Thu 06:52:05 PM 37.0931 -80.6978 237° Southwest 431 496 38,000  Level Atlanta Center
Thu 06:53:05 PM 37.0422 -80.8325 245° Southwest 431 496 38,000 600 Level Atlanta Center
Thu 06:54:05 PM 36.9878 -80.9828 246° West 431 496 39,200 1,000 Climbing Atlanta Center
Thu 06:55:05 PM 36.9408 -81.1119 246° West 425 489 40,000 400 Climbing Atlanta Center
Thu 06:56:05 PM 36.8939 -81.2461 246° West 425 489 40,000  Level Atlanta Center
Thu 06:57:05 PM 36.8489 -81.3694 246° West 414 476 40,000  Level Atlanta Center
Thu 06:58:05 PM 36.8053 -81.4850 245° Southwest 407 468 40,000  Level Atlanta Center
Thu 06:59:05 PM 36.7664 -81.6133 249° West 400 460 40,000  Level Atlanta Center
Thu 07:00:05 PM 36.7186 -81.7392 245° Southwest 400 460 40,000  Level Atlanta Center
Thu 07:01:05 PM 36.6669 -81.8778 245° Southwest 400 460 40,000  Level Atlanta Center
Thu 07:02:05 PM 36.6211 -82.0031 246° West 405 466 40,000  Level Atlanta Center
Thu 07:03:05 PM 36.5731 -82.1283 244° Southwest 405 466 40,000  Level Atlanta Center
Thu 07:04:05 PM 36.5269 -82.2508 245° Southwest 405 466 40,000  Level Atlanta Center
Thu 07:05:05 PM 36.4831 -82.3786 247° West 405 466 40,000  Level Atlanta Center
Thu 07:06:05 PM 36.4344 -82.5008 244° Southwest 399 459 40,000  Level Atlanta Center
Thu 07:07:05 PM 36.3881 -82.6256 245° Southwest 399 459 40,000  Level Atlanta Center
Thu 07:08:05 PM 36.3414 -82.7500 245° Southwest 399 459 40,000  Level Atlanta Center
Thu 07:09:05 PM 36.2947 -82.8744 245° Southwest 405 466 40,000  Level Atlanta Center
Thu 07:10:05 PM 36.2478 -82.9961 244° Southwest 400 460 40,000  Level Atlanta Center
Thu 07:11:05 PM 36.2008 -83.1203 245° Southwest 405 466 40,000  Level Atlanta Center
Thu 07:12:05 PM 36.1536 -83.2442 245° Southwest 399 459 40,000  Level Atlanta Center
Thu 07:13:05 PM 36.1086 -83.3681 246° West 399 459 40,000  Level Atlanta Center
Thu 07:14:05 PM 36.0611 -83.4917 245° Southwest 399 459 40,000  Level Atlanta Center
Thu 07:15:05 PM 36.0200 -83.5997 245° Southwest 399 459 40,000  Level Atlanta Center
Thu 07:16:05 PM 35.9722 -83.7206 244° Southwest 399 459 40,000  Level Atlanta Center
Thu 07:17:05 PM 35.9267 -83.8414 245° Southwest 399 459 40,000  Level Atlanta Center
Thu 07:18:06 PM 35.8642 -83.9517 235° Southwest 399 459 40,000  Level Atlanta Center
Thu 07:19:05 PM 35.7892 -84.0542 228° Southwest 399 459 40,000 -454 Level Atlanta Center
Thu 07:20:05 PM 35.7161 -84.1564 229° Southwest 399 459 39,100 -1,000 Descending Atlanta Center
Thu 07:21:05 PM 35.6408 -84.2611 229° Southwest 409 471 38,000 -550 Descending Atlanta Center
Thu 07:22:05 PM 35.5678 -84.3606 228° Southwest 409 471 38,000  Level Atlanta Center
Thu 07:23:05 PM 35.4903 -84.4647 228° Southwest 409 471 38,000  Level Atlanta Center
Thu 07:24:05 PM 35.4083 -84.5814 229° Southwest 409 471 38,000 -50 Level Atlanta Center
Thu 07:25:05 PM 35.3328 -84.6853 228° Southwest 409 471 37,900 -900 Descending Atlanta Center
Thu 07:26:05 PM 35.2569 -84.7917 229° Southwest 409 471 36,200 -1,450 Descending Atlanta Center
Thu 07:27:05 PM 35.1792 -84.9003 229° Southwest 420 483 35,000 -600 Descending Atlanta Center
Thu 07:28:05 PM 35.0989 -85.0086 228° Southwest 430 495 35,000  Level Atlanta Center
Thu 07:29:05 PM 35.0250 -85.1092 228° Southwest 424 488 35,000  Level Atlanta Center
Thu 07:30:05 PM 34.9511 -85.2094 228° Southwest 413 475 35,000  Level Atlanta Center
Thu 07:31:05 PM 34.8750 -85.3097 227° Southwest 408 470 35,000  Level Atlanta Center
Thu 07:32:05 PM 34.7967 -85.4172 228° Southwest 413 475 35,000 -700 Level Atlanta Center
Thu 07:33:05 PM 34.7203 -85.5197 228° Southwest 413 475 33,600 -1,500 Descending Atlanta Center
Thu 07:34:05 PM 34.6419 -85.6244 228° Southwest 413 475 32,000 -2,050 Descending Atlanta Center
Thu 07:35:05 PM 34.5633 -85.7289 228° Southwest 413 475 29,500 -2,500 Descending Atlanta Center
Thu 07:36:05 PM 34.4953 -85.8206 228° Southwest 413 475 27,000 -2,750 Descending Atlanta Center
Thu 07:37:05 PM 34.4164 -85.9247 227° Southwest 413 475 24,000 -2,900 Descending Atlanta Center
Thu 07:38:05 PM 34.3419 -86.0211 227° Southwest 413 475 21,200 -2,650 Descending Atlanta Center
Thu 07:39:05 PM 34.2736 -86.1125 228° Southwest 396 456 18,700 -2,550 Descending Atlanta Center
Thu 07:40:05 PM 34.2031 -86.2064 228° Southwest 374 430 16,100 -2,581 Descending Atlanta Center
Thu 07:40:38 PM 34.1644 -86.2581 228° Southwest 341 392 14,700 -2,400 Descending Atlanta Center
Thu 07:41:05 PM 34.1369 -86.2925 226° Southwest 357 411 13,700 -2,429 Descending Atlanta Center
Thu 07:41:20 PM 34.1217 -86.3172 233° Southwest 340 391 13,000 -2,053 Descending Atlanta Center
Thu 07:42:21 PM 34.0556 -86.4006 226° Southwest 341 392 11,100 -1,143 Descending Atlanta Center
Thu 07:43:05 PM 34.0106 -86.4597 227° Southwest 345 397 11,000 -98 Descending Atlanta Center
Thu 07:43:22 PM 33.9892 -86.4867 226° Southwest 323 372 11,000 -200 Level Atlanta Center
Thu 07:44:05 PM 33.9447 -86.5203 212° Southwest 324 373 10,800 -900 Descending Atlanta Center
Thu 07:44:22 PM 33.9214 -86.5347 207° Southwest 276 318 10,100 -2,000 Descending Atlanta Center
Thu 07:45:05 PM 33.8747 -86.5633 207° Southwest 302 348 8,800 -2,066 Descending Atlanta Center
Thu 07:45:23 PM 33.8536 -86.5778 210° Southwest 269 310 8,000 -2,100 Descending Atlanta Center
Thu 07:46:05 PM 33.8036 -86.5786 181° South 269 310 6,700 -2,000 Descending Atlanta Center
Thu 07:46:23 PM 33.7825 -86.5831 190° South 256 295 6,000 -2,000 Descending Atlanta Center
Thu 07:47:05 PM 33.7386 -86.5942 192° South 256 295 4,700 -1,967 Descending Atlanta Center
Thu 07:47:24 PM 33.7194 -86.6111 216° Southwest 233 268 4,000 -1,600 Descending Atlanta Center
Thu 07:48:05 PM 33.6794 -86.6275 199° South 246 283 3,100 -984 Descending Atlanta Center
Thu 07:48:25 PM 33.6583 -86.6419 210° Southwest 233 268 3,000 -400 Descending Atlanta Center
Thu 07:49:05 PM 33.6264 -86.6608 206° Southwest 234 269 2,700 -600 Descending Atlanta Center
Thu 07:49:25 PM 33.6117 -86.6778 224° Southwest 198 228 2,400 -600 Descending Atlanta Center
Thu 07:50:05 PM 33.5800 -86.6894 197° South 217 250 2,100 -1,082 Descending Atlanta Center
Thu 07:50:26 PM 33.5836 -86.7194 278° West 150 173 1,300 -2,286 Descending Atlanta Center
Thu 07:52:00 PM 33.5639 -86.7523 217° Southwest  Level Estimated
Thu 07:59:00 PM 33.5639 -86.7523 217° Southwest  Level Estimated

Login

Don't have an account? Register now (free) for customized features, flight alerts, and more!